KSEE/SEE METAR and TAF weather

Enter ICAO airport designator
Station Type Date Time Source
KSEE METAR 2022/05/25 00:47 UTC NOAA

KSEE 250047Z 23009KT 10SM SKC 20/12 A2982


Station Type Date Time Source
KSEE Decoded METAR 2022/05/25 00:47 UTC NOAA

San Diego/El Cajon, Gillespie Field Airport, CA, United States (KSEE) 32-49-34N 116-58-20W
May 24, 2022 - 08:47 PM EDT / 2022.05.25 0047 UTC
Wind: from the SW (230 degrees) at 10 MPH (9 KT):0
Visibility: 10 mile(s):0
Sky conditions: clear
Temperature: 68 F (20 C)
Dew Point: 53 F (12 C)
Relative Humidity: 59%
Pressure (altimeter): 29.82 in. Hg (1009 hPa)
ob: KSEE 250047Z 23009KT 10SM SKC 20/12 A2982
cycle: 1

Station Type Date Time Source
KSEE TAF UTC NOAA

Error!

Example: see airport list